Time;durP1;ratioP1;P1;durP2;ratioP2;P2;SDS_P1;SDS_P2;PMS_P1;PMS_P2;Temp;Humidity;BMP_temperature;BMP_pressure;BME280_temperature;BME280_humidity;BME280_pressure;Samples;Min_cycle;Max_cycle;Signal;HPM_P1;HPM_P2
2023/03/06 00:00:40;;;;;;;4.25;2.78;;;;;;;19.83;33.79;100770.38;5097231;28;20025;-74
2023/03/06 00:03:06;;;;;;;3.85;2.13;;;;;;;20.00;33.49;100799.97;5094340;28;20044;-74
2023/03/06 00:05:31;;;;;;;4.85;2.60;;;;;;;19.96;33.81;100784.16;5086370;28;20067;-74
2023/03/06 00:07:56;;;;;;;3.40;2.20;;;;;;;19.92;33.67;100781.94;5094553;28;20031;-73
2023/03/06 00:10:27;;;;;;;5.03;2.47;;;;;;;19.93;33.93;100780.97;5093129;28;20096;-74
2023/03/06 00:12:54;;;;;;;4.22;2.67;;;;;;;19.92;33.46;100781.94;5086683;28;20024;-74
2023/03/06 00:15:20;;;;;;;4.72;2.33;;;;;;;19.90;33.52;100779.44;5072608;28;20055;-74
2023/03/06 00:17:45;;;;;;;3.28;2.20;;;;;;;19.88;33.56;100768.00;5083970;28;20039;-74
2023/03/06 00:20:12;;;;;;;4.18;2.38;;;;;;;19.41;33.52;100698.81;5092502;28;20033;-74
2023/03/06 00:22:37;;;;;;;4.07;2.50;;;;;;;19.85;33.57;100764.81;5092091;28;20020;-73
2023/03/06 00:25:03;;;;;;;5.63;2.40;;;;;;;19.38;33.72;100692.91;5097757;28;20096;-73
2023/03/06 00:27:30;;;;;;;5.90;2.45;;;;;;;19.82;33.82;100759.78;5101207;28;20056;-73
2023/03/06 00:29:56;;;;;;;4.53;2.30;;;;;;;19.29;33.59;100662.47;5099976;28;20032;-74
2023/03/06 00:32:22;;;;;;;3.70;2.35;;;;;;;19.78;33.74;100748.50;5086306;28;20054;-73
2023/03/06 00:34:48;;;;;;;3.72;2.15;;;;;;;19.24;33.85;100667.53;5096098;28;20087;-73
2023/03/06 00:37:14;;;;;;;2.90;1.90;;;;;;;19.76;33.61;100745.16;5095182;28;20024;-74
2023/03/06 00:39:39;;;;;;;4.30;2.33;;;;;;;19.26;33.92;100664.69;5093263;28;20036;-74
2023/03/06 00:42:05;;;;;;;3.67;2.00;;;;;;;19.29;33.68;100667.88;5092055;28;20041;-74
2023/03/06 00:44:30;;;;;;;3.03;1.83;;;;;;;19.70;33.61;100730.50;5095397;28;20088;-74
2023/03/06 00:46:56;;;;;;;4.63;2.30;;;;;;;19.68;33.68;100721.75;5101271;28;20032;-74
2023/03/06 00:49:21;;;;;;;3.28;1.98;;;;;;;19.58;33.84;100707.63;5090978;28;20087;-74
2023/03/06 00:51:46;;;;;;;3.63;2.58;;;;;;;19.65;33.78;100721.25;5101768;28;20056;-74
2023/03/06 00:54:12;;;;;;;2.78;2.05;;;;;;;19.63;33.68;100724.16;5100348;28;20036;-74
2023/03/06 00:56:37;;;;;;;4.57;2.70;;;;;;;19.62;34.14;100721.63;5103395;28;20021;-74
2023/03/06 00:59:02;;;;;;;3.33;2.08;;;;;;;19.60;33.70;100716.38;5088911;28;20032;-74
2023/03/06 01:01:28;;;;;;;3.05;1.80;;;;;;;19.02;33.87;100626.03;5090274;28;20023;-74
2023/03/06 01:03:53;;;;;;;2.05;1.58;;;;;;;19.56;33.83;100716.91;5095518;28;20126;-75
2023/03/06 01:06:19;;;;;;;2.42;1.77;;;;;;;19.15;33.92;100660.50;5104518;28;20020;-74
2023/03/06 01:08:44;;;;;;;2.92;1.90;;;;;;;19.39;33.79;100692.72;5091482;28;20052;-74
2023/03/06 01:11:09;;;;;;;6.07;2.22;;;;;;;19.53;33.79;100711.88;5093058;28;20810;-74
2023/03/06 01:13:34;;;;;;;4.80;2.63;;;;;;;19.01;34.00;100632.47;5095575;28;20076;-74
2023/03/06 01:16:09;;;;;;;2.22;1.73;;;;;;;19.21;34.03;100660.66;5085362;28;20050;-74
2023/03/06 01:18:34;;;;;;;4.72;2.45;;;;;;;18.95;33.76;100631.31;5093630;28;20032;-73
2023/03/06 01:21:00;;;;;;;4.43;1.95;;;;;;;19.46;34.02;100701.81;5088935;28;20115;-73
2023/03/06 01:23:25;;;;;;;2.88;2.00;;;;;;;19.38;34.00;100701.00;5096001;28;20107;-74
2023/03/06 01:25:51;;;;;;;3.72;2.00;;;;;;;18.91;33.81;100613.00;5088095;28;21085;-74
2023/03/06 01:28:16;;;;;;;4.60;2.17;;;;;;;19.39;33.82;100697.28;5093654;28;20032;-73
2023/03/06 01:30:41;;;;;;;3.22;1.80;;;;;;;19.38;33.95;100687.53;5096184;28;20078;-74
2023/03/06 01:33:07;;;;;;;4.00;2.30;;;;;;;19.38;33.96;100693.75;5093827;28;20028;-73
2023/03/06 01:35:32;;;;;;;2.60;1.75;;;;;;;19.37;33.79;100689.38;5094109;28;20485;-74
2023/03/06 01:37:57;;;;;;;3.72;1.88;;;;;;;19.32;33.89;100685.53;5092398;28;20111;-74
2023/03/06 01:40:22;;;;;;;4.13;1.85;;;;;;;19.34;33.98;100688.91;5090787;28;20032;-74
2023/03/06 01:42:49;;;;;;;3.33;2.03;;;;;;;18.78;34.00;100608.16;5084991;28;20063;-74
2023/03/06 01:45:14;;;;;;;2.47;1.55;;;;;;;19.27;33.78;100685.22;5093534;28;20024;-74
2023/03/06 01:47:39;;;;;;;3.13;1.90;;;;;;;19.29;33.93;100689.44;5091757;28;20059;-73
2023/03/06 01:50:08;;;;;;;3.45;2.13;;;;;;;19.27;33.65;100683.34;5089348;28;20020;-73
2023/03/06 01:52:39;;;;;;;2.57;1.63;;;;;;;19.27;34.20;100679.81;5087883;28;20090;-74
2023/03/06 01:55:08;;;;;;;3.10;1.98;;;;;;;19.17;34.06;100664.72;5095066;28;20035;-74
2023/03/06 01:57:37;;;;;;;3.13;2.05;;;;;;;19.22;33.91;100667.72;5097426;28;20051;-74
2023/03/06 02:00:24;;;;;;;2.67;1.80;;;;;;;19.25;34.05;100666.53;5089409;28;20024;-74
2023/03/06 02:02:53;;;;;;;3.28;2.03;;;;;;;18.63;33.96;100566.78;5102419;28;20048;-74
2023/03/06 02:05:18;;;;;;;2.67;1.77;;;;;;;19.08;33.79;100648.78;5083353;28;20034;-74
2023/03/06 02:07:45;;;;;;;2.00;1.50;;;;;;;18.69;33.83;100580.44;5087963;28;20032;-73
2023/03/06 02:10:11;;;;;;;2.08;1.50;;;;;;;19.21;34.04;100667.91;5091077;28;20093;-73
2023/03/06 02:12:38;;;;;;;3.22;1.80;;;;;;;18.81;33.74;100605.09;5094918;28;20024;-74
2023/03/06 02:15:04;;;;;;;2.17;1.50;;;;;;;18.70;33.89;100587.50;5095934;28;20470;-74
2023/03/06 02:17:33;;;;;;;2.13;1.55;;;;;;;19.18;34.05;100655.59;5088813;28;20028;-74
2023/03/06 02:20:19;;;;;;;2.78;1.70;;;;;;;19.18;33.92;100646.69;5103030;28;20044;-74
2023/03/06 02:22:54;;;;;;;2.30;1.50;;;;;;;19.18;33.86;100649.38;5097497;28;20507;-74
2023/03/06 02:25:26;;;;;;;2.50;1.75;;;;;;;19.16;33.86;100644.19;5090689;28;20051;-73
2023/03/06 02:27:51;;;;;;;2.22;1.45;;;;;;;19.08;33.65;100630.75;5100249;28;20028;-72
2023/03/06 02:30:17;;;;;;;2.42;1.70;;;;;;;19.15;33.95;100636.25;5098525;28;20020;-73
2023/03/06 02:32:42;;;;;;;1.85;1.50;;;;;;;19.14;33.73;100640.81;5102227;28;20485;-73
2023/03/06 02:35:17;;;;;;;4.50;1.92;;;;;;;18.60;33.74;100551.81;5090488;28;20028;-72
2023/03/06 02:37:43;;;;;;;2.22;1.55;;;;;;;19.13;33.74;100627.53;5101224;28;20028;-73
2023/03/06 02:40:11;;;;;;;2.40;1.50;;;;;;;19.13;33.75;100622.13;5084511;28;20035;-74
2023/03/06 02:42:36;;;;;;;1.95;1.63;;;;;;;19.13;33.65;100624.81;5092579;28;20047;-74
2023/03/06 02:45:04;;;;;;;2.72;1.70;;;;;;;19.02;33.79;100609.03;5091607;28;20036;-73
2023/03/06 02:47:29;;;;;;;1.92;1.30;;;;;;;18.49;33.72;100522.59;5092225;28;20028;-74
2023/03/06 02:49:54;;;;;;;1.83;1.38;;;;;;;19.12;33.85;100617.75;5096955;28;20469;-74
2023/03/06 02:52:20;;;;;;;2.38;1.63;;;;;;;19.12;33.59;100617.75;5090160;28;20032;-74
2023/03/06 02:54:45;;;;;;;2.20;1.33;;;;;;;18.97;33.77;100585.31;5091826;28;20032;-74
2023/03/06 02:57:10;;;;;;;2.45;1.42;;;;;;;19.06;33.72;100600.44;5089354;28;20031;-74
2023/03/06 02:59:36;;;;;;;2.53;1.60;;;;;;;18.54;33.68;100505.91;5095577;28;20374;-74
2023/03/06 03:02:01;;;;;;;1.70;1.30;;;;;;;19.12;33.66;100601.59;5091105;28;20159;-74
2023/03/06 03:04:26;;;;;;;3.10;1.70;;;;;;;18.95;33.54;100571.22;5083212;28;20070;-74
2023/03/06 03:06:51;;;;;;;2.75;1.73;;;;;;;19.13;33.67;100604.09;5089697;28;20063;-74
2023/03/06 03:09:17;;;;;;;2.60;1.50;;;;;;;18.55;33.58;100508.41;5083949;28;20020;-73
2023/03/06 03:11:42;;;;;;;1.60;1.50;;;;;;;19.13;33.43;100597.88;5087693;28;20024;-74
2023/03/06 03:14:07;;;;;;;2.22;1.48;;;;;;;18.96;33.36;100571.03;5090565;28;20040;-74
2023/03/06 03:16:32;;;;;;;2.75;1.60;;;;;;;19.12;33.42;100586.25;5089539;28;20023;-74
2023/03/06 03:18:58;;;;;;;2.53;1.30;;;;;;;18.66;33.38;100518.81;5091976;28;20055;-74
2023/03/06 03:21:23;;;;;;;1.77;1.40;;;;;;;18.72;33.72;100511.91;5085514;28;20031;-74
2023/03/06 03:23:48;;;;;;;2.67;1.40;;;;;;;19.13;33.43;100573.63;5090796;28;20170;-74
2023/03/06 03:26:19;;;;;;;2.30;1.40;;;;;;;18.98;33.73;100550.13;5089633;28;20028;-74
2023/03/06 03:28:45;;;;;;;1.98;1.33;;;;;;;18.56;33.61;100471.56;5101433;28;20052;-71
2023/03/06 03:31:11;;;;;;;1.58;1.25;;;;;;;19.13;33.64;100558.28;5092876;28;20032;-72
2023/03/06 03:33:36;;;;;;;1.30;1.13;;;;;;;19.15;33.58;100560.78;5086744;28;20031;-73
2023/03/06 03:36:04;;;;;;;3.03;1.45;;;;;;;19.14;33.65;100551.88;5094769;28;20032;-73
2023/03/06 03:38:30;;;;;;;1.98;1.25;;;;;;;19.13;33.51;100547.50;5091206;28;20040;-73
2023/03/06 03:40:55;;;;;;;1.90;1.20;;;;;;;19.17;33.36;100550.69;5091018;28;20050;-73
2023/03/06 03:43:20;;;;;;;2.35;1.40;;;;;;;19.16;33.30;100544.47;5092420;28;20109;-73
2023/03/06 03:45:46;;;;;;;2.03;1.30;;;;;;;19.17;33.63;100548.00;5091953;28;20028;-73
2023/03/06 03:48:11;;;;;;;1.30;1.20;;;;;;;19.16;33.61;100538.25;5092159;28;20046;-73
2023/03/06 03:50:36;;;;;;;1.90;1.30;;;;;;;18.73;33.23;100474.03;5093233;28;20025;-74
2023/03/06 03:53:02;;;;;;;2.25;1.27;;;;;;;18.76;33.58;100471.97;5086140;28;20062;-73
2023/03/06 03:55:27;;;;;;;1.65;1.27;;;;;;;19.19;33.30;100538.69;5089316;28;20083;-73
2023/03/06 03:57:52;;;;;;;1.20;1.00;;;;;;;19.20;33.49;100539.56;5075940;28;20036;-73
2023/03/06 04:00:18;;;;;;;1.60;1.27;;;;;;;19.21;33.34;100535.84;5091205;28;20035;-74
2023/03/06 04:02:44;;;;;;;2.05;1.20;;;;;;;19.20;33.53;100535.00;5085113;28;20147;-72
2023/03/06 04:05:11;;;;;;;1.80;1.30;;;;;;;18.69;33.47;100450.28;5088382;28;20029;-74
2023/03/06 04:07:37;;;;;;;1.58;1.20;;;;;;;19.23;33.23;100531.09;5080612;28;20385;-74
2023/03/06 04:10:03;;;;;;;1.40;1.30;;;;;;;18.68;33.51;100438.66;5089401;28;20024;-73
2023/03/06 04:12:28;;;;;;;1.55;1.27;;;;;;;19.15;33.49;100514.97;5088443;28;20070;-74
2023/03/06 04:14:53;;;;;;;1.20;1.08;;;;;;;19.24;33.44;100524.69;5103932;28;20032;-74
2023/03/06 04:17:19;;;;;;;3.65;1.55;;;;;;;19.25;33.38;100522.84;5084963;28;20031;-73
2023/03/06 04:19:44;;;;;;;1.58;1.10;;;;;;;18.75;33.45;100438.84;5094390;28;20093;-73
2023/03/06 04:22:09;;;;;;;2.28;1.30;;;;;;;18.68;33.20;100425.19;5092047;28;20529;-73
2023/03/06 04:24:35;;;;;;;1.75;1.10;;;;;;;19.27;33.37;100507.31;5098124;28;20028;-73
2023/03/06 04:27:00;;;;;;;2.10;1.27;;;;;;;18.72;33.08;100420.34;5098628;28;20070;-72
2023/03/06 04:29:25;;;;;;;1.95;1.30;;;;;;;19.27;33.28;100516.25;5093753;28;20029;-73
2023/03/06 04:31:50;;;;;;;1.73;1.33;;;;;;;18.78;33.46;100434.97;5091314;28;20024;-74
2023/03/06 04:34:16;;;;;;;1.60;0.93;;;;;;;19.30;33.39;100506.97;5097732;28;20032;-72
2023/03/06 04:36:43;;;;;;;2.45;1.30;;;;;;;19.20;33.36;100488.34;5104895;28;20036;-72
2023/03/06 04:39:11;;;;;;;1.42;1.00;;;;;;;18.84;33.15;100435.06;5092970;28;20112;-73
2023/03/06 04:41:36;;;;;;;1.38;1.00;;;;;;;19.33;33.13;100518.22;5092943;28;20027;-73
2023/03/06 04:44:02;;;;;;;1.85;1.35;;;;;;;18.88;33.25;100428.28;5085818;28;20049;-72
2023/03/06 04:46:27;;;;;;;1.17;1.08;;;;;;;19.34;33.13;100505.59;5087100;28;20029;-72
2023/03/06 04:48:52;;;;;;;2.60;1.23;;;;;;;18.93;33.21;100439.38;5092890;28;20040;-73
2023/03/06 04:51:18;;;;;;;1.15;0.90;;;;;;;19.34;32.95;100501.03;5096324;28;20016;-74
2023/03/06 04:53:43;;;;;;;1.50;1.10;;;;;;;18.95;33.19;100429.25;5100366;28;20177;-74
2023/03/06 04:56:08;;;;;;;1.42;1.10;;;;;;;19.24;32.92;100476.16;5094292;28;20032;-73
2023/03/06 04:58:34;;;;;;;1.23;0.95;;;;;;;19.36;32.95;100492.75;5088640;28;20028;-73
2023/03/06 05:00:59;;;;;;;1.88;1.20;;;;;;;19.39;33.15;100493.22;5093094;28;20094;-74
2023/03/06 05:03:24;;;;;;;1.95;1.00;;;;;;;19.41;33.09;100498.44;5103703;28;20508;-74
2023/03/06 05:05:50;;;;;;;2.05;1.25;;;;;;;19.34;33.06;100484.03;5091913;28;20032;-74
2023/03/06 05:08:16;;;;;;;1.45;1.13;;;;;;;19.42;33.13;100495.56;5091936;28;20103;-74
2023/03/06 05:10:42;;;;;;;1.35;1.00;;;;;;;18.97;32.85;100416.44;5091190;28;20042;-74
2023/03/06 05:13:07;;;;;;;1.17;1.08;;;;;;;19.44;32.66;100482.72;5096062;28;20029;-73
2023/03/06 05:15:33;;;;;;;1.23;1.10;;;;;;;19.07;33.03;100418.88;5096901;28;20032;-72
2023/03/06 05:17:58;;;;;;;2.47;1.20;;;;;;;19.00;32.91;100404.47;5092014;28;20024;-73
2023/03/06 05:20:24;;;;;;;1.58;0.98;;;;;;;19.46;32.78;100461.00;5092761;28;20381;-74
2023/03/06 05:22:49;;;;;;;1.30;1.10;;;;;;;19.27;32.98;100440.78;5097087;28;20051;-74
2023/03/06 05:25:15;;;;;;;1.23;0.85;;;;;;;19.49;32.85;100466.84;5080374;28;20021;-72
2023/03/06 05:27:40;;;;;;;1.52;0.93;;;;;;;19.52;32.79;100462.13;5090835;28;20028;-73
2023/03/06 05:30:09;;;;;;;1.45;0.88;;;;;;;19.52;32.73;100448.63;5092496;28;20028;-72
2023/03/06 05:32:34;;;;;;;1.00;0.82;;;;;;;19.10;32.59;100382.66;5092627;28;20055;-71
2023/03/06 05:35:00;;;;;;;1.58;1.10;;;;;;;19.55;32.81;100453.66;5095778;28;20040;-71
2023/03/06 05:37:25;;;;;;;1.75;1.00;;;;;;;19.39;33.09;100427.69;5101250;28;20086;-74
2023/03/06 05:39:50;;;;;;;2.70;1.00;;;;;;;19.58;32.63;100456.84;5080425;28;20024;-71
2023/03/06 05:42:17;;;;;;;2.45;1.00;;;;;;;19.60;33.25;100454.78;5094960;28;20049;-72
2023/03/06 05:44:42;;;;;;;1.10;1.00;;;;;;;19.62;33.24;100466.25;5100841;28;20032;-73
2023/03/06 05:47:08;;;;;;;1.83;1.27;;;;;;;19.60;32.86;100456.66;5098791;28;20441;-69
2023/03/06 05:49:34;;;;;;;1.60;1.25;;;;;;;19.65;32.62;100463.19;5095915;28;20028;-71
2023/03/06 05:52:02;;;;;;;2.05;0.95;;;;;;;19.67;32.98;100468.41;5100876;28;20384;-70
2023/03/06 05:54:28;;;;;;;3.55;1.00;;;;;;;19.70;32.69;100466.16;5080082;28;20030;-72
2023/03/06 05:56:53;;;;;;;2.08;1.05;;;;;;;19.73;33.16;100456.88;5102950;28;20052;-73
2023/03/06 05:59:18;;;;;;;3.13;1.00;;;;;;;19.76;33.33;100461.06;5094430;28;20050;-72
2023/03/06 06:01:44;;;;;;;2.97;1.20;;;;;;;19.78;33.25;100459.00;5100804;28;20074;-73
2023/03/06 06:04:10;;;;;;;2.42;0.90;;;;;;;19.29;33.57;100382.13;5099848;28;20051;-74
2023/03/06 06:06:35;;;;;;;1.23;1.00;;;;;;;19.79;33.29;100461.50;5098047;28;20016;-73
2023/03/06 06:09:01;;;;;;;1.25;0.93;;;;;;;19.78;33.37;100464.41;5101911;28;20110;-73
2023/03/06 06:11:26;;;;;;;3.88;1.27;;;;;;;19.33;33.40;100383.44;5100193;28;20030;-73
2023/03/06 06:13:51;;;;;;;1.75;1.35;;;;;;;19.83;33.02;100452.03;5098479;28;20041;-74
2023/03/06 06:16:18;;;;;;;1.27;1.02;;;;;;;19.85;33.87;100454.56;5098756;28;20529;-72
2023/03/06 06:18:43;;;;;;;2.35;1.33;;;;;;;19.77;33.51;100442.00;5101977;28;20088;-71
2023/03/06 06:21:10;;;;;;;1.65;0.98;;;;;;;19.61;33.67;100412.50;5100776;28;20025;-72
2023/03/06 06:23:35;;;;;;;2.90;0.98;;;;;;;19.88;33.58;100451.47;5097346;28;20518;-72
2023/03/06 06:26:03;;;;;;;2.35;1.00;;;;;;;19.89;33.43;100459.41;5098096;28;20044;-71
2023/03/06 06:28:29;;;;;;;1.23;1.00;;;;;;;19.89;33.96;100451.31;5099522;28;20106;-72
2023/03/06 06:30:55;;;;;;;1.60;0.90;;;;;;;19.93;33.62;100457.16;5097526;28;20502;-73
2023/03/06 06:33:20;;;;;;;1.77;1.05;;;;;;;19.87;33.73;100447.94;5095117;28;20037;-73
2023/03/06 06:35:45;;;;;;;12.15;2.70;;;;;;;19.95;33.74;100449.72;5098035;28;20495;-73
2023/03/06 06:38:11;;;;;;;1.77;1.23;;;;;;;19.96;33.53;100451.38;5099592;28;20039;-73
2023/03/06 06:40:36;;;;;;;2.65;1.00;;;;;;;19.50;33.69;100373.34;5099561;28;20051;-72
2023/03/06 06:43:01;;;;;;;1.70;1.08;;;;;;;19.84;33.65;100421.34;5096619;28;20044;-74
2023/03/06 06:45:27;;;;;;;1.40;1.10;;;;;;;20.04;33.53;100450.44;5096507;28;20494;-72
2023/03/06 06:47:53;;;;;;;1.15;0.85;;;;;;;20.05;33.12;100457.50;5099076;28;20090;-72
2023/03/06 06:50:18;;;;;;;1.73;1.00;;;;;;;19.53;33.80;100364.84;5097912;28;20020;-73
2023/03/06 06:52:44;;;;;;;1.10;0.90;;;;;;;20.07;33.93;100453.63;5089147;28;20052;-72
2023/03/06 06:55:10;;;;;;;3.65;1.08;;;;;;;19.37;33.83;100355.09;5093488;28;20748;-71
2023/03/06 06:57:35;;;;;;;2.03;1.02;;;;;;;20.11;33.83;100464.88;5097884;28;20028;-72
2023/03/06 07:00:01;;;;;;;1.67;0.70;;;;;;;20.11;33.60;100476.50;5079771;28;20043;-73
2023/03/06 07:02:26;;;;;;;1.30;0.70;;;;;;;20.13;33.72;100465.50;5098088;28;20451;-74
2023/03/06 07:04:51;;;;;;;1.52;0.90;;;;;;;20.13;33.34;100463.66;5098721;28;20024;-73
2023/03/06 07:07:17;;;;;;;1.83;1.00;;;;;;;20.14;33.49;100467.22;5097622;28;20016;-73
2023/03/06 07:09:42;;;;;;;2.20;0.90;;;;;;;20.16;33.52;100463.28;5098750;28;20056;-73
2023/03/06 07:12:08;;;;;;;2.20;0.82;;;;;;;20.17;33.55;100461.41;5097134;28;20110;-74
2023/03/06 07:14:33;;;;;;;2.13;0.73;;;;;;;20.09;33.32;100448.88;5098235;28;20035;-76
2023/03/06 07:16:59;;;;;;;1.90;0.85;;;;;;;20.19;33.34;100471.00;5080331;28;20029;-76
2023/03/06 07:19:24;;;;;;;3.70;0.80;;;;;;;20.22;33.53;100469.81;5090786;28;20028;-76
2023/03/06 07:21:50;;;;;;;1.77;0.80;;;;;;;20.21;33.32;100471.66;5089097;28;20511;-76
2023/03/06 07:24:15;;;;;;;2.38;0.80;;;;;;;19.82;33.23;100398.28;5090645;28;20465;-76
2023/03/06 07:26:45;;;;;;;0.98;0.70;;;;;;;20.24;33.44;100473.16;5092331;28;20092;-75
2023/03/06 07:29:10;;;;;;;1.58;0.88;;;;;;;20.26;33.47;100475.66;5093842;28;20032;-76
2023/03/06 07:31:36;;;;;;;0.88;0.70;;;;;;;19.69;33.29;100385.44;5092170;28;20031;-77
2023/03/06 07:34:01;;;;;;;1.80;0.65;;;;;;;19.78;33.29;100399.66;5090861;28;20035;-75
2023/03/06 07:36:26;;;;;;;1.30;0.90;;;;;;;20.29;33.18;100475.28;5092589;28;20036;-74
2023/03/06 07:38:52;;;;;;;1.88;0.80;;;;;;;20.30;33.12;100485.03;5097343;28;20053;-74
2023/03/06 07:41:17;;;;;;;1.25;0.70;;;;;;;20.31;33.33;100486.75;5098643;28;20648;-73
2023/03/06 07:43:44;;;;;;;2.08;1.00;;;;;;;19.58;33.34;100372.38;5099850;28;20020;-74
2023/03/06 07:46:10;;;;;;;1.52;0.85;;;;;;;20.32;33.42;100485.72;5095615;28;20024;-75
2023/03/06 07:48:36;;;;;;;1.70;0.73;;;;;;;19.88;33.31;100421.78;5096295;28;20023;-74
2023/03/06 07:51:07;;;;;;;1.95;0.50;;;;;;;20.32;33.16;100483.84;5092356;28;20020;-74
2023/03/06 07:53:33;;;;;;;2.47;0.80;;;;;;;20.32;33.08;100489.25;5098425;28;20016;-74
2023/03/06 07:55:58;;;;;;;1.23;0.77;;;;;;;20.32;33.49;100491.94;5100675;28;20025;-73
2023/03/06 07:58:24;;;;;;;1.80;1.10;;;;;;;20.31;33.25;100492.13;5093846;28;20073;-73
2023/03/06 08:00:50;;;;;;;0.65;0.57;;;;;;;20.33;33.07;100498.19;5097437;28;20110;-72
2023/03/06 08:03:15;;;;;;;1.05;0.50;;;;;;;19.95;33.36;100447.84;5095200;28;20067;-72
2023/03/06 08:05:41;;;;;;;2.65;0.93;;;;;;;19.83;33.35;100437.69;5091963;28;20032;-74
2023/03/06 08:08:06;;;;;;;1.05;0.70;;;;;;;19.88;33.32;100444.25;5095864;28;20028;-72
2023/03/06 08:10:31;;;;;;;1.33;0.70;;;;;;;19.83;33.71;100446.63;5094405;28;20025;-71
2023/03/06 08:12:57;;;;;;;0.73;0.65;;;;;;;20.32;33.59;100528.91;5098419;28;20033;-70
2023/03/06 08:15:22;;;;;;;1.25;0.70;;;;;;;20.31;33.56;100524.53;5096625;28;20029;-70
2023/03/06 08:17:49;;;;;;;2.10;0.70;;;;;;;20.33;33.66;100533.28;5099207;28;20048;-69
2023/03/06 08:20:14;;;;;;;1.48;0.68;;;;;;;20.32;33.49;100526.22;5097408;28;20025;-69
2023/03/06 08:22:39;;;;;;;1.13;0.55;;;;;;;20.31;33.50;100522.66;5100004;28;20024;-70
2023/03/06 08:25:06;;;;;;;1.13;0.50;;;;;;;20.25;33.41;100526.09;5082676;28;20023;-70
2023/03/06 08:27:32;;;;;;;0.95;0.50;;;;;;;20.31;33.56;100522.66;5098360;28;20038;-70
2023/03/06 08:29:58;;;;;;;0.77;0.60;;;;;;;20.28;33.72;100524.91;5097393;28;20166;-72
2023/03/06 08:32:23;;;;;;;0.65;0.43;;;;;;;19.50;33.84;100405.69;5102015;28;20436;-71
2023/03/06 08:34:49;;;;;;;1.08;0.52;;;;;;;20.30;33.91;100531.78;5083539;28;20024;-71
2023/03/06 08:37:14;;;;;;;0.50;0.50;;;;;;;20.29;34.15;100530.09;5096050;28;20036;-70
2023/03/06 08:39:39;;;;;;;1.08;0.60;;;;;;;20.30;33.86;100526.38;5080746;28;20028;-69
2023/03/06 08:42:05;;;;;;;1.25;0.60;;;;;;;20.30;33.68;100531.78;5100263;28;20056;-72
2023/03/06 08:44:30;;;;;;;0.73;0.50;;;;;;;20.30;33.81;100539.03;5097062;28;20022;-73
2023/03/06 08:46:55;;;;;;;1.77;0.52;;;;;;;19.80;33.92;100459.69;5093744;28;20045;-72
2023/03/06 08:49:21;;;;;;;1.40;0.60;;;;;;;20.27;34.02;100544.84;5102188;28;20808;-73
2023/03/06 08:51:46;;;;;;;0.98;0.50;;;;;;;20.26;33.75;100543.97;5099683;28;20032;-72
2023/03/06 08:54:12;;;;;;;1.45;1.13;;;;;;;20.24;33.62;100540.63;5093639;28;20050;-73
2023/03/06 08:56:37;;;;;;;0.98;0.50;;;;;;;20.25;33.89;100546.88;5090939;28;20089;-72
2023/03/06 08:59:03;;;;;;;0.90;0.60;;;;;;;20.23;34.06;100541.66;5090019;28;20036;-78
2023/03/06 09:01:35;;;;;;;1.15;0.40;;;;;;;20.03;33.84;100506.28;5104637;28;20104;-74
2023/03/06 09:04:03;;;;;;;4.50;0.70;;;;;;;19.73;33.97;100462.25;5100519;28;20041;-76
2023/03/06 09:06:30;;;;;;;1.50;0.70;;;;;;;20.20;33.64;100539.31;5088621;28;20032;-76
2023/03/06 09:08:56;;;;;;;0.75;0.50;;;;;;;19.77;33.64;100474.38;5094666;28;20054;-75
2023/03/06 09:11:23;;;;;;;3.10;0.95;;;;;;;20.22;33.78;100537.31;5100995;28;20020;-75
2023/03/06 09:13:48;;;;;;;0.85;0.55;;;;;;;20.20;33.94;100545.56;5093096;28;20020;-76
2023/03/06 09:16:14;;;;;;;0.80;0.80;;;;;;;20.20;33.78;100537.47;5082067;28;20031;-76
2023/03/06 09:18:39;;;;;;;0.60;0.50;;;;;;;20.10;33.81;100519.88;5094573;28;20074;-76
2023/03/06 09:21:06;;;;;;;0.98;0.40;;;;;;;19.75;33.52;100456.69;5096326;28;20073;-77
2023/03/06 09:23:31;;;;;;;1.75;0.40;;;;;;;19.79;33.68;100460.69;5080643;28;20024;-76
2023/03/06 09:25:57;;;;;;;1.05;0.57;;;;;;;20.11;33.44;100513.47;5096867;28;20032;-77
2023/03/06 09:28:23;;;;;;;2.10;1.00;;;;;;;19.71;33.65;100464.31;5093323;28;20180;-76
2023/03/06 09:30:49;;;;;;;1.30;0.55;;;;;;;19.59;33.67;100430.72;5093287;28;20062;-75
2023/03/06 09:33:15;;;;;;;1.05;0.50;;;;;;;20.17;33.41;100527.03;5088960;28;20056;-76
2023/03/06 09:35:52;;;;;;;2.08;0.50;;;;;;;20.17;33.86;100526.19;5090766;28;20024;-77
2023/03/06 09:38:19;;;;;;;1.33;0.60;;;;;;;20.11;33.50;100514.28;5103515;28;20028;-77
2023/03/06 09:40:56;;;;;;;0.50;0.50;;;;;;;20.15;33.80;100526.41;5090809;28;20103;-75
2023/03/06 09:43:28;;;;;;;0.82;0.43;;;;;;;19.62;33.56;100436.56;5095196;28;20055;-76
2023/03/06 09:45:54;;;;;;;0.60;0.52;;;;;;;20.13;33.61;100523.03;5092476;28;20028;-76
2023/03/06 09:48:21;;;;;;;1.15;0.60;;;;;;;19.95;33.68;100496.41;5086254;28;20024;-76
2023/03/06 09:50:54;;;;;;;0.50;0.50;;;;;;;20.08;33.57;100509.25;5087861;28;20020;-76
2023/03/06 09:53:22;;;;;;;0.70;0.70;;;;;;;20.13;33.55;100523.03;5094837;28;20024;-76
2023/03/06 09:55:56;;;;;;;0.50;0.50;;;;;;;20.12;33.83;100517.81;5089821;28;20058;-76
2023/03/06 09:58:24;;;;;;;0.70;0.40;;;;;;;20.14;33.65;100521.19;5093754;28;20020;-76
2023/03/06 10:01:06;;;;;;;0.73;0.60;;;;;;;20.12;33.62;100524.06;5092762;28;20028;-76
2023/03/06 10:04:07;;;;;;;2.08;0.47;;;;;;;20.12;33.94;100517.81;5094805;28;20075;-77
2023/03/06 10:06:39;;;;;;;1.13;0.50;;;;;;;20.12;33.31;100524.06;5090997;28;20058;-76
2023/03/06 10:09:06;;;;;;;0.85;0.50;;;;;;;20.12;33.56;100531.31;5088678;28;20108;-76
2023/03/06 10:11:36;;;;;;;0.50;0.50;;;;;;;19.90;33.46;100490.75;5091944;28;20025;-76
2023/03/06 10:14:21;;;;;;;0.63;0.47;;;;;;;20.12;33.54;100525.91;5088300;28;20036;-75
2023/03/06 10:16:47;;;;;;;1.80;0.50;;;;;;;20.13;33.40;100527.59;5090559;28;20029;-75
2023/03/06 10:19:17;;;;;;;0.55;0.50;;;;;;;20.01;33.26;100504.78;5102242;28;20131;-75
2023/03/06 10:21:59;;;;;;;0.50;0.50;;;;;;;20.11;33.47;100529.66;5092486;28;20027;-76
2023/03/06 10:24:49;;;;;;;0.85;0.65;;;;;;;20.04;33.69;100509.81;5088486;28;20029;-76
2023/03/06 10:27:33;;;;;;;0.60;0.60;;;;;;;20.11;33.47;100527.78;5075414;28;20024;-76
2023/03/06 10:30:32;;;;;;;0.50;0.50;;;;;;;20.12;33.57;100526.75;5095977;28;20020;-76
2023/03/06 10:33:14;;;;;;;0.80;0.45;;;;;;;20.11;33.26;100525.09;5089430;28;20035;-76
2023/03/06 10:35:48;;;;;;;0.40;0.40;;;;;;;20.12;33.70;100534.03;5099220;28;20059;-76
2023/03/06 10:38:39;;;;;;;0.70;0.40;;;;;;;20.12;33.41;100529.44;5096236;28;20483;-76
2023/03/06 10:41:11;;;;;;;0.70;0.50;;;;;;;20.14;33.22;100534.69;5088481;28;20024;-77
2023/03/06 10:43:44;;;;;;;0.73;0.60;;;;;;;20.06;33.22;100530.22;5087528;28;20024;-76
2023/03/06 10:46:13;;;;;;;2.45;0.82;;;;;;;20.14;33.37;100538.22;5097461;28;20021;-77
2023/03/06 10:48:40;;;;;;;0.68;0.40;;;;;;;20.13;33.31;100538.38;5095457;28;20037;-77
2023/03/06 10:51:24;;;;;;;1.02;0.50;;;;;;;20.11;33.10;100540.44;5089890;28;20032;-77
2023/03/06 10:53:54;;;;;;;0.95;0.52;;;;;;;20.10;33.31;100538.78;5095883;28;20021;-76
2023/03/06 10:56:39;;;;;;;0.40;0.40;;;;;;;20.10;33.08;100544.19;5101250;28;20097;-77
2023/03/06 10:59:11;;;;;;;0.43;0.43;;;;;;;20.08;33.38;100532.72;5093835;28;20055;-76
2023/03/06 11:01:41;;;;;;;0.40;0.40;;;;;;;20.06;33.38;100534.78;5099471;28;20574;-75
2023/03/06 11:04:44;;;;;;;2.17;0.50;;;;;;;20.08;33.21;100530.84;5096789;28;20072;-77
2023/03/06 11:07:15;;;;;;;1.42;0.50;;;;;;;20.09;33.51;100526.28;5024462;28;20028;-75
2023/03/06 11:09:43;;;;;;;0.40;0.40;;;;;;;20.11;33.48;100526.94;5050840;28;20041;-76
2023/03/06 11:12:20;;;;;;;1.58;0.60;;;;;;;20.12;33.19;100518.66;5050287;28;20029;-75
2023/03/06 11:14:45;;;;;;;0.50;0.50;;;;;;;20.13;33.53;100517.63;5029483;28;20064;-77
2023/03/06 11:17:31;;;;;;;1.08;0.38;;;;;;;20.18;33.39;100522.50;5030944;28;20037;-75
2023/03/06 11:20:14;;;;;;;0.77;0.50;;;;;;;20.25;33.10;100523.41;5030828;28;20033;-76
2023/03/06 11:22:40;;;;;;;1.15;0.50;;;;;;;20.29;33.12;100527.41;5014241;28;20529;-76
2023/03/06 11:25:10;;;;;;;0.38;0.38;;;;;;;19.81;33.28;100447.84;5030180;28;20052;-76